M I D A S
Marine Information and Data Acquisition System
Tripno 1739 of the Zeeleeuw from 2009-07-27 06:58:48 to 2009-07-27 13:02:44
Back to CruiseResearch ActivitiesStationsMapUnderway DataData graphs

EquipmentUnitsComment
TimeDGPSUTC
LatitudeDGPSDM.mWGS84
LongitudeDGPSDM.mWGS84
TemperatureSBE03/SBE38deg celciusITS90
ConductivitySBE21S/mITS90
SalinitySBE21 Practical Salinity Units
ChlorophylAChelsea fluorimeterg/lCalibrated in Aceton
Missing or incorrect values are displayed as -999
Sea surface data collected by the RV Zeeleeuw from 2009-07-27 06:45:13 to 2009-07-27 13:10:34
Time Latitude Longitude Temperature Conductivity Salinity ChlorophylA
2009-07-27 06:46:17 51°13.663 2°55.958 20.946 0.086253 0.453884 8.889463
2009-07-27 06:47:17 51°13.664 2°55.959 20.9477 0.085944 0.452239 8.889463
2009-07-27 06:48:16 51°13.664 2°55.96 20.9485 0.086047 0.452831 8.889463
2009-07-27 06:49:15 51°13.664 2°55.96 20.9477 0.086459 0.455106 8.889463
2009-07-27 06:50:14 51°13.664 2°55.96 20.9555 0.086047 0.452906 8.889463
2009-07-27 06:51:15 51°13.664 2°55.96 20.9594 0.085841 0.451814 8.889463
2009-07-27 06:52:15 51°13.662 2°55.962 20.9613 0.085738 0.451276 8.889463
2009-07-27 06:53:18 51°13.662 2°55.962 20.9596 0.08615 0.453559 8.889463
2009-07-27 06:54:17 51°13.663 2°55.962 20.9605 0.086253 0.454151 8.889463
2009-07-27 06:55:18 51°13.663 2°55.96 20.9669 0.085738 0.451374 8.889463
2009-07-27 06:56:17 51°13.663 2°55.961 20.9707 0.085635 0.450843 8.854639
2009-07-27 06:57:15 51°13.662 2°55.961 20.9815 0.08543 0.449751 8.854639
2009-07-27 06:58:15 51°13.666 2°55.942 20.9695 0.099426 0.52649 8.854639
2009-07-27 06:59:18 51°13.688 2°55.853 20.9983 0.102205 0.541836 8.854639
2009-07-27 07:00:18 51°13.696 2°55.767 21.001 0.107968 0.573709 8.854639
2009-07-27 07:01:16 51°13.699 2°55.737 21.0086 0.11332 0.603406 8.854639
2009-07-27 07:02:15 51°13.701 2°55.74 20.994 0.101999 0.540793 8.854639
2009-07-27 07:03:15 51°13.706 2°55.732 21.049 0.137711 0.739695 8.854639
2009-07-27 07:04:15 51°13.789 2°55.667 20.9773 0.0985 0.521597 8.854639
2009-07-27 07:05:15 51°13.911 2°55.574 20.9915 0.098603 0.522207 8.854639
2009-07-27 07:06:15 51°14.04 2°55.479 21.0091 0.094898 0.501888 8.854639
2009-07-27 07:07:15 51°14.166 2°55.375 21.0392 0.109615 0.583134 8.854639
2009-07-27 07:08:15 51°14.273 2°55.221 21.017 0.110541 0.588264 8.854639
2009-07-27 07:09:15 51°14.365 2°55.039 20.9922 0.09181 0.485027 8.819815
2009-07-27 07:10:15 51°14.49 2°54.878 21.0369 0.116407 0.6209 8.854639
2009-07-27 07:11:15 51°14.646 2°54.72 21.0256 0.095824 0.507119 8.819815
2009-07-27 07:12:15 51°14.815 2°54.56 21.0172 0.089958 0.474944 8.854639
2009-07-27 07:13:15 51°14.985 2°54.406 21.0388 0.093971 0.49703 8.819815
2009-07-27 07:14:15 51°15.158 2°54.255 21.0354 0.084298 0.444101 8.819815
2009-07-27 07:15:15 51°15.329 2°54.102 21.0198 0.091707 0.484601 8.854639
2009-07-27 07:16:15 51°15.503 2°53.955 21.0519 0.096956 0.513506 8.819815
2009-07-27 07:17:15 51°15.675 2°53.803 21.0273 0.09109 0.481314 8.819815
2009-07-27 07:18:15 51°15.849 2°53.652 21.049 0.093148 0.492635 8.819815
2009-07-27 07:19:14 51°16.019 2°53.502 21.0522 0.09109 0.481427 8.819815
2009-07-27 07:20:14 51°16.194 2°53.351 21.0435 0.093354 0.49389 8.819815
2009-07-27 07:21:15 51°16.367 2°53.191 21.0598 0.097265 0.515387 8.819815
2009-07-27 07:22:15 51°16.538 2°53.033 21.078 0.091193 0.482105 8.819815
2009-07-27 07:23:14 51°16.709 2°52.885 21.0682 0.093766 0.496251 8.819815
2009-07-27 07:24:14 51°16.882 2°52.734 21.0859 0.094692 0.501416 8.819815
2009-07-27 07:25:15 51°17.066 2°52.605 21.0971 0.096441 0.511133 8.819815
2009-07-27 07:26:14 51°17.247 2°52.487 21.1119 0.096853 0.513546 8.784991
2009-07-27 07:27:14 51°17.436 2°52.407 21.0667 0.090678 0.479696 8.819815
2009-07-27 07:28:15 51°17.63 2°52.47 21.1198 0.096133 0.509769 8.819815
2009-07-27 07:29:15 51°17.798 2°52.617 21.1075 0.087179 0.460759 8.784991
2009-07-27 07:30:15 51°17.92 2°52.854 21.1197 0.093045 0.493075 8.819815
2009-07-27 07:31:14 51°18.028 2°53.103 21.1329 0.093457 0.495407 8.784991
2009-07-27 07:32:15 51°18.14 2°53.36 21.1578 0.091193 0.482975 8.784991
2009-07-27 07:33:15 51°18.249 2°53.615 21.1667 0.094383 0.500639 8.784991
2009-07-27 07:34:15 51°18.357 2°53.87 21.1675 0.093766 0.497231 8.784991
2009-07-27 07:35:15 51°18.462 2°54.129 21.1824 0.086973 0.459941 8.784991
2009-07-27 07:36:14 51°18.564 2°54.385 21.1948 0.092839 0.492368 8.784991
2009-07-27 07:37:15 51°18.67 2°54.648 21.2016 0.097779 0.519561 8.784991
2009-07-27 07:38:14 51°18.775 2°54.897 21.2136 0.098088 0.521309 8.784991
2009-07-27 07:39:15 51°18.881 2°55.158 21.2284 0.096956 0.515174 8.784991
2009-07-27 07:40:15 51°18.986 2°55.414 21.2304 0.091604 0.485696 8.784991
2009-07-27 07:41:15 51°19.092 2°55.667 21.2286 0.092737 0.492059 8.784991
2009-07-27 07:42:14 51°19.199 2°55.914 21.2447 0.090678 0.480741 8.784991
2009-07-27 07:43:14 51°19.304 2°56.168 21.2593 0.092016 0.488134 8.784991
2009-07-27 07:44:15 51°19.411 2°56.424 21.2625 0.092839 0.492659 8.784991
2009-07-27 07:45:15 51°19.516 2°56.678 21.2614 0.09181 0.487067 8.784991
2009-07-27 07:46:15 51°19.62 2°56.932 21.2817 0.104469 0.557105 8.784991
2009-07-27 07:47:14 51°19.724 2°57.181 21.3053 0.094486 0.501893 8.784991
2009-07-27 07:48:15 51°19.822 2°57.444 21.321 0.09428 0.500792 8.784991
2009-07-27 07:49:15 51°19.906 2°57.715 21.332 0.089443 0.474209 8.784991
2009-07-27 07:50:15 51°19.989 2°57.986 21.336 0.10344 0.551623 8.784991
2009-07-27 07:51:15 51°20.072 2°58.256 21.3368 0.094589 0.502724 8.784991
2009-07-27 07:52:15 51°20.154 2°58.526 21.3495 0.096133 0.511263 8.819815
2009-07-27 07:53:15 51°20.233 2°58.798 21.3696 0.088105 0.467046 8.784991
2009-07-27 07:54:15 51°20.294 2°59.08 21.3752 0.094486 0.502284 8.784991
2009-07-27 07:55:15 51°20.346 2°59.366 21.3838 0.088311 0.46828 8.784991
2009-07-27 07:56:15 51°20.395 2°59.652 21.3736 0.098706 0.525725 8.819815
2009-07-27 07:57:15 51°20.446 2°59.938 21.388 0.100146 0.53372 8.819815
2009-07-27 07:58:14 51°20.5 3°0.216 21.4191 0.089649 0.475759 8.819815
2009-07-27 07:59:15 51°20.552 3°0.505 21.4402 0.105395 0.562952 8.819815
2009-07-27 08:00:15 51°20.599 3°0.792 21.4444 0.093869 0.499088 8.819815
2009-07-27 08:01:15 51°20.649 3°1.076 21.462 0.097676 0.520217 8.819815
2009-07-27 08:02:15 51°20.7 3°1.36 21.4753 0.099117 0.528282 8.819815
2009-07-27 08:03:15 51°20.753 3°1.639 21.4832 0.10344 0.552289 8.819815
2009-07-27 08:04:15 51°20.813 3°1.912 21.4976 0.096956 0.516346 8.819815
2009-07-27 08:05:15 51°20.874 3°2.179 21.4959 0.094177 0.501013 8.819815
2009-07-27 08:06:15 51°20.913 3°2.453 21.5106 0.099014 0.527873 8.819815
2009-07-27 08:07:14 51°20.939 3°2.724 21.5371 0.103543 0.55303 8.819815
2009-07-27 08:08:15 51°20.971 3°3.003 21.5406 0.101484 0.541668 8.819815
2009-07-27 08:09:15 51°21.009 3°3.275 21.5522 0.099117 0.528515 8.819815
2009-07-27 08:10:15 51°21.043 3°3.546 21.5556 0.095207 0.506948 8.819815
2009-07-27 08:11:15 51°21.079 3°3.815 21.5759 0.10169 0.542911 8.819815
2009-07-27 08:12:15 51°21.114 3°4.086 21.5872 0.093251 0.496253 8.819815
2009-07-27 08:13:15 51°21.146 3°4.358 21.608 0.107351 0.574488 8.819815
2009-07-27 08:14:15 51°21.177 3°4.629 21.6239 0.098191 0.523687 8.819815
2009-07-27 08:15:15 51°21.206 3°4.899 21.5772 0.093045 0.49515 8.819815
2009-07-27 08:16:15 51°21.211 3°5.172 21.6401 0.107351 0.574733 8.819815
2009-07-27 08:17:15 51°21.203 3°5.445 21.6652 0.105189 0.562688 8.819815
2009-07-27 08:18:15 51°21.195 3°5.717 21.6754 0.103028 0.55065 8.819815
2009-07-27 08:19:15 51°21.194 3°5.984 21.6644 0.097779 0.521628 8.854639
2009-07-27 08:20:15 51°21.189 3°6.236 21.6828 0.119598 0.643392 8.854639
2009-07-27 08:21:15 51°21.18 3°6.431 21.7021 0.12145 0.6539 8.854639
2009-07-27 08:22:15 51°21.175 3°6.613 21.7233 0.122171 0.657992 8.854639
2009-07-27 08:23:15 51°21.177 3°6.793 21.7375 0.140285 0.760324 8.854639
2009-07-27 08:24:15 51°21.198 3°6.97 21.7491 0.143681 0.779584 8.854639
2009-07-27 08:25:15 51°21.232 3°7.139 21.76 0.147283 0.800153 8.854639
2009-07-27 08:26:15 51°21.301 3°7.282 21.7728 0.139153 0.754001 8.854639
2009-07-27 08:27:15 51°21.377 3°7.417 21.7957 0.16056 0.876014 8.854639
2009-07-27 08:28:15 51°21.428 3°7.511 21.7677 0.101896 0.544749 8.854639
2009-07-27 08:29:15 51°21.394 3°7.557 21.7802 0.08296 0.440146 8.854639
2009-07-27 08:30:15 51°21.324 3°7.505 21.7939 0.10663 0.571363 8.854639
2009-07-27 08:31:15 51°21.291 3°7.383 21.8126 0.101279 0.541576 8.854639
2009-07-27 08:32:15 51°21.317 3°7.28 21.831 0.117951 0.634799 8.889463
2009-07-27 08:33:15 51°21.367 3°7.271 21.871 0.138844 0.752885 8.854639
2009-07-27 08:34:15 51°21.401 3°7.348 21.8848 0.185675 1.020968 8.854639
2009-07-27 08:35:15 51°21.448 3°7.429 21.8821 0.16056 0.876753 8.889463
2009-07-27 08:36:15 51°21.494 3°7.508 21.8994 0.162413 0.88754 8.889463
2009-07-27 08:37:15 51°21.547 3°7.561 21.9233 0.169309 0.927132 8.889463
2009-07-27 08:38:15 51°21.602 3°7.605 21.9264 0.164677 0.90056 8.889463
2009-07-27 08:39:15 51°21.651 3°7.656 21.9373 0.166942 0.913876 8.889463
2009-07-27 08:40:15 51°21.676 3°7.727 21.9577 0.168383 0.922068 8.889463
2009-07-27 08:41:15 51°21.695 3°7.803 21.9748 0.176102 0.96594 8.889463
2009-07-27 08:42:15 51°21.715 3°7.879 22.1326 0.181146 0.996024 8.889463
2009-07-27 08:43:15 51°21.734 3°7.956 19.3293 4.425836 32.053285 9.20288
2009-07-27 08:44:15 51°21.753 3°8.032 19.2804 4.337201 31.673245 9.168055
2009-07-27 08:45:15 51°21.771 3°8.108 19.2698 4.314161 31.526579 9.620768
2009-07-27 08:46:15 51°21.773 3°8.186 19.2707 4.315718 31.548122 10.247601
2009-07-27 08:47:15 51°21.756 3°8.267 19.2804 4.319039 31.578182 10.66549
2009-07-27 08:48:15 51°21.711 3°8.335 19.2901 4.314992 31.540424 11.187851
2009-07-27 08:49:15 51°21.638 3°8.365 19.2895 4.317794 31.55563 11.77986
2009-07-27 08:50:15 51°21.553 3°8.332 19.2828 4.317067 31.557366 12.929053
2009-07-27 08:51:15 51°21.473 3°8.251 19.2868 4.313954 31.532543 13.24247
2009-07-27 08:52:15 51°21.414 3°8.14 19.2711 4.30835 31.491516 14.356839
2009-07-27 08:53:15 51°21.377 3°8.025 19.2661 4.312813 31.535601 15.018497
2009-07-27 08:54:15 51°21.355 3°7.906 19.2597 4.315511 31.561763 15.471209
2009-07-27 08:55:15 51°21.341 3°7.787 19.2563 4.314058 31.555208 15.923922
2009-07-27 08:56:15 51°21.326 3°7.668 19.2523 4.309077 31.518652 16.446283
2009-07-27 08:57:15 51°21.305 3°7.551 19.2516 4.3152 31.571027 16.898995
2009-07-27 08:58:15 51°21.282 3°7.433 19.2441 4.315615 31.575009 17.003468
2009-07-27 08:59:15 51°21.26 3°7.317 19.2426 4.31603 31.581355 17.560652
2009-07-27 09:00:15 51°21.239 3°7.205 19.244 4.316134 31.583976 18.152661
2009-07-27 09:01:15 51°21.219 3°7.096 19.2374 4.316238 31.586597 18.709846
2009-07-27 09:02:15 51°21.199 3°6.989 19.2405 4.315719 31.583538 19.127735
2009-07-27 09:03:15 51°21.178 3°6.883 19.2368 4.315512 31.584797 19.580448
2009-07-27 09:04:15 51°21.158 3°6.777 19.2366 4.314681 31.579785 20.172456
2009-07-27 09:05:15 51°21.143 3°6.671 19.2278 4.314266 31.578757 20.555521
2009-07-27 09:06:15 51°21.138 3°6.57 19.225 4.31354 31.575183 21.495771
2009-07-27 09:07:15 51°21.139 3°6.47 19.2316 4.313436 31.575517 22.052955
2009-07-27 09:08:15 51°21.151 3°6.37 19.2293 4.313851 31.577137 22.122603
2009-07-27 09:09:15 51°21.164 3°6.286 19.2348 4.313644 31.573667 22.052955
2009-07-27 09:10:15 51°21.171 3°6.215 19.2458 4.313747 31.569198 21.32165
2009-07-27 09:11:15 51°21.174 3°6.148 19.2535 4.315304 31.573647 20.729641
2009-07-27 09:12:15 51°21.177 3°6.082 19.2631 4.315926 31.573419 20.346577
2009-07-27 09:13:15 51°21.187 3°5.988 19.267 4.317379 31.579381 20.067984
2009-07-27 09:14:15 51°21.177 3°5.859 19.2685 4.317275 31.575581 19.893864
2009-07-27 09:15:15 51°21.143 3°5.624 19.2687 4.320285 31.59839 19.68492
2009-07-27 09:16:15 51°21.09 3°5.293 19.2653 4.320389 31.599238 20.938586
2009-07-27 09:17:15 51°21.03 3°4.954 19.2591 4.320181 31.605225 21.112706
2009-07-27 09:18:15 51°20.969 3°4.615 19.252 4.3207 31.607099 20.451049
2009-07-27 09:19:15 51°20.909 3°4.276 19.2297 4.321842 31.627663 20.067984
2009-07-27 09:20:15 51°20.844 3°3.939 19.2164 4.323814 31.658587 19.893864
2009-07-27 09:21:15 51°20.779 3°3.603 19.2293 4.32589 31.680304 19.650096
2009-07-27 09:22:15 51°20.717 3°3.266 19.2172 4.327965 31.693128 19.441151
2009-07-27 09:23:15 51°20.651 3°2.93 19.2138 4.328692 31.705598 19.336679
2009-07-27 09:24:15 51°20.587 3°2.595 19.1997 4.331079 31.729285 19.371503
2009-07-27 09:25:15 51°20.523 3°2.26 19.2129 4.335231 31.774561 19.545624
2009-07-27 09:26:15 51°20.458 3°1.926 19.2417 4.337721 31.778877 19.510799
2009-07-27 09:27:15 51°20.394 3°1.593 19.2444 4.345194 31.825134 19.441151
2009-07-27 09:28:15 51°20.331 3°1.26 19.2071 4.358479 31.936838 19.580448
2009-07-27 09:29:15 51°20.271 3°0.928 19.1747 4.383701 32.172924 19.928688
2009-07-27 09:30:15 51°20.213 3°0.597 19.143 4.409444 32.405418 20.381401
2009-07-27 09:31:15 51°20.155 3°0.268 19.1147 4.438717 32.669943 20.659993
2009-07-27 09:32:14 51°20.099 2°59.943 19.101 4.464463 32.901099 20.97341
2009-07-27 09:33:15 51°20.04 2°59.607 19.0926 4.48097 33.045287 21.32165
2009-07-27 09:34:14 51°19.979 2°59.284 19.0752 4.497996 33.193925 21.774363
2009-07-27 09:35:15 51°19.91 2°58.956 19.0574 4.518346 33.377104 22.227076
2009-07-27 09:36:14 51°19.825 2°58.65 19.0544 4.52904 33.467433 22.331548
2009-07-27 09:37:15 51°19.733 2°58.338 19.0093 4.552091 33.679113 22.331548
2009-07-27 09:38:14 51°19.649 2°58.032 19.0072 4.571198 33.867447 22.227076
2009-07-27 09:39:14 51°19.561 2°57.726 19.0366 4.584489 33.975841 21.913659
2009-07-27 09:40:14 51°19.472 2°57.422 18.9919 4.602558 34.114304 21.495771
2009-07-27 09:41:14 51°19.375 2°57.128 18.9608 4.618031 34.274512 20.799289
2009-07-27 09:42:15 51°19.268 2°56.836 18.9351 4.626859 34.373254 20.346577
2009-07-27 09:43:15 51°19.16 2°56.554 18.9182 4.631325 34.426705 20.03316
2009-07-27 09:44:15 51°19.052 2°56.272 18.9107 4.634233 34.463968 19.754568
2009-07-27 09:45:15 51°18.945 2°55.989 18.8997 4.635895 34.486301 19.371503
2009-07-27 09:46:15 51°18.836 2°55.707 18.8953 4.637037 34.501704 19.267031
2009-07-27 09:47:15 51°18.728 2°55.425 18.8886 4.637661 34.511474 19.267031
2009-07-27 09:48:15 51°18.605 2°55.16 18.8817 4.637557 34.517796 19.162559
2009-07-27 09:49:15 51°18.477 2°54.901 18.8667 4.637038 34.520655 18.988439
2009-07-27 09:50:15 51°18.348 2°54.646 18.8633 4.636519 34.524824 18.779494
2009-07-27 09:51:15 51°18.219 2°54.391 18.8564 4.636103 34.526591 18.605374
2009-07-27 09:52:15 51°18.106 2°54.12 18.8488 4.635688 34.528358 18.39643
2009-07-27 09:53:14 51°17.998 2°53.85 18.8434 4.635065 34.529046 18.152661
2009-07-27 09:54:14 51°17.889 2°53.575 18.8343 4.634442 34.53039 17.943717
2009-07-27 09:55:14 51°17.78 2°53.301 18.8281 4.634027 34.531505 17.769597
2009-07-27 09:56:14 51°17.674 2°53.021 18.8163 4.633404 34.533505 17.595476
2009-07-27 09:57:15 51°17.564 2°52.741 18.8025 4.632573 34.537048 17.421356
2009-07-27 09:58:15 51°17.425 2°52.523 18.7831 4.631535 34.540169 17.247236
2009-07-27 09:59:15 51°17.236 2°52.417 18.7669 4.630289 34.546149 16.898995
2009-07-27 10:00:15 51°17.04 2°52.388 18.7587 4.629043 34.548854 16.829347
2009-07-27 10:01:15 51°16.848 2°52.448 18.7619 4.628627 34.548005 16.864171
2009-07-27 10:02:15 51°16.661 2°52.539 18.7808 4.628731 34.541653 17.142764
2009-07-27 10:03:15 51°16.474 2°52.629 18.8156 4.630496 34.537389 17.665125
2009-07-27 10:04:15 51°16.289 2°52.724 18.8545 4.632469 34.526352 18.291958
2009-07-27 10:05:15 51°16.098 2°52.797 18.8905 4.635688 34.521815 19.023263
2009-07-27 10:06:15 51°15.908 2°52.87 18.9288 4.638284 34.514057 19.371503
2009-07-27 10:07:15 51°15.72 2°52.95 18.9606 4.640672 34.500022 19.68492
2009-07-27 10:08:15 51°15.532 2°53.028 18.9616 4.640879 34.483497 19.68492
2009-07-27 10:09:15 51°15.346 2°53.113 18.94 4.63766 34.45994 19.510799
2009-07-27 10:10:15 51°15.165 2°53.216 18.9156 4.633298 34.440539 19.371503
2009-07-27 10:11:15 51°14.99 2°53.341 18.9008 4.630079 34.431299 19.058087
2009-07-27 10:12:15 51°14.813 2°53.459 18.9011 4.627691 34.423116 18.814318
2009-07-27 10:13:14 51°14.647 2°53.589 18.9105 4.625302 34.399297 18.675022
2009-07-27 10:14:15 51°14.487 2°53.756 18.9383 4.624367 34.382397 18.779494
2009-07-27 10:15:15 51°14.303 2°53.823 18.9825 4.622082 34.338027 18.953615
2009-07-27 10:16:15 51°14.158 2°53.704 19.0217 4.618447 34.269555 19.267031
2009-07-27 10:17:15 51°14.058 2°53.454 19.0356 4.61585 34.224068 19.545624
2009-07-27 10:18:15 51°13.952 2°53.177 19.0449 4.61533 34.208787 19.719744
2009-07-27 10:19:15 51°13.845 2°52.898 19.0475 4.615538 34.204064 19.824216
2009-07-27 10:20:15 51°13.738 2°52.618 19.0447 4.616577 34.211398 19.893864
2009-07-27 10:21:15 51°13.632 2°52.336 19.0326 4.617823 34.226261 19.893864
2009-07-27 10:22:15 51°13.527 2°52.053 19.0206 4.619277 34.248667 19.85904
2009-07-27 10:23:15 51°13.421 2°51.769 19.0093 4.620627 34.269577 19.754568
2009-07-27 10:24:15 51°13.317 2°51.483 19.0036 4.621562 34.283813 19.754568
2009-07-27 10:25:15 51°13.213 2°51.196 18.9949 4.621458 34.290067 19.68492
2009-07-27 10:26:15 51°13.115 2°50.904 18.9838 4.62042 34.288551 19.650096
2009-07-27 10:27:15 51°13.018 2°50.611 18.9774 4.620212 34.293945 19.580448
2009-07-27 10:28:15 51°12.918 2°50.321 18.9767 4.620835 34.303015 19.475975
2009-07-27 10:29:15 51°12.82 2°50.03 18.976 4.621147 34.308846 19.406327
2009-07-27 10:30:14 51°12.719 2°49.746 18.9826 4.621978 34.313166 19.336679
2009-07-27 10:31:15 51°12.611 2°49.455 18.9853 4.624158 34.325476 19.267031
2009-07-27 10:32:15 51°12.512 2°49.164 18.9882 4.627274 34.349449 19.162559
2009-07-27 10:33:15 51°12.414 2°48.872 18.9845 4.629559 34.36651 19.127735
2009-07-27 10:34:15 51°12.319 2°48.581 18.9609 4.63257 34.399362 18.918791
2009-07-27 10:35:14 51°12.226 2°48.295 18.9393 4.634129 34.431836 18.814318
2009-07-27 10:36:15 51°12.129 2°48.001 18.9282 4.63496 34.455035 18.779494
2009-07-27 10:37:15 51°12.036 2°47.711 18.9208 4.635687 34.46761 18.849142
2009-07-27 10:38:15 51°11.941 2°47.421 18.9122 4.636102 34.477593 18.814318
2009-07-27 10:39:15 51°11.847 2°47.13 18.9017 4.635687 34.481307 18.74467
2009-07-27 10:40:14 51°11.753 2°46.845 18.887 4.63548 34.489365 18.640198
2009-07-27 10:41:15 51°11.656 2°46.551 18.8758 4.634649 34.49419 18.535726
2009-07-27 10:42:15 51°11.562 2°46.261 18.8716 4.634234 34.497258 18.466078
2009-07-27 10:43:15 51°11.467 2°45.971 18.8639 4.633922 34.50054 18.39643
2009-07-27 10:44:15 51°11.374 2°45.681 18.8632 4.633818 34.503596 18.291958
2009-07-27 10:45:15 51°11.28 2°45.393 18.8531 4.633507 34.506227 18.291958
2009-07-27 10:46:15 51°11.187 2°45.107 18.8507 4.633092 34.506683 18.257134
2009-07-27 10:47:15 51°11.093 2°44.82 18.8496 4.63278 34.506698 18.257134
2009-07-27 10:48:15 51°11 2°44.534 18.8457 4.632469 34.505406 18.257134
2009-07-27 10:49:15 51°10.906 2°44.247 18.8467 4.632261 34.504326 18.257134
2009-07-27 10:50:14 51°10.818 2°43.983 18.8475 4.632157 34.502804 18.291958
2009-07-27 10:51:15 51°10.744 2°43.754 18.8478 4.631949 34.502379 18.291958
2009-07-27 10:52:15 51°10.702 2°43.464 18.8465 4.631845 34.500203 18.291958
2009-07-27 10:53:15 51°10.678 2°43.144 18.8472 4.631845 34.500857 18.39643
2009-07-27 10:54:15 51°10.654 2°42.819 18.8434 4.631534 34.49891 18.500902
2009-07-27 10:55:15 51°10.625 2°42.494 18.8344 4.630911 34.498286 18.675022
2009-07-27 10:56:15 51°10.594 2°42.168 18.8254 4.629976 34.498332 18.883966
2009-07-27 10:57:14 51°10.562 2°41.847 18.8186 4.629249 34.498149 19.058087
2009-07-27 10:58:14 51°10.533 2°41.521 18.8122 4.628834 34.499261 19.197383
2009-07-27 10:59:15 51°10.501 2°41.188 18.8035 4.628419 34.501028 19.301855
2009-07-27 11:00:15 51°10.471 2°40.86 18.7873 4.627069 34.501534 19.371503
2009-07-27 11:01:15 51°10.439 2°40.532 18.7811 4.625823 34.502254 19.267031
2009-07-27 11:02:15 51°10.408 2°40.204 18.777 4.625408 34.501402 19.058087
2009-07-27 11:03:15 51°10.377 2°39.885 18.7775 4.6252 34.502287 19.023263
2009-07-27 11:04:15 51°10.359 2°39.693 18.7825 4.6252 34.501632 18.953615
2009-07-27 11:05:15 51°10.305 2°39.609 18.7871 4.625408 34.500747 18.814318
2009-07-27 11:06:15 51°10.243 2°39.59 18.7943 4.625927 34.499191 18.74467
2009-07-27 11:07:15 51°10.186 2°39.545 18.7959 4.626342 34.497423 18.640198
2009-07-27 11:08:14 51°10.14 2°39.478 18.8011 4.626446 34.496981 18.675022
2009-07-27 11:09:15 51°10.1 2°39.405 18.8003 4.626654 34.497407 18.605374
2009-07-27 11:10:15 51°10.066 2°39.331 18.8029 4.626861 34.496523 18.605374
2009-07-27 11:11:15 51°10.033 2°39.26 18.807 4.626965 34.495427 18.57055
2009-07-27 11:12:14 51°10.004 2°39.186 18.805 4.627173 34.495853 18.535726
2009-07-27 11:13:15 51°9.976 2°39.107 18.8055 4.627173 34.495198 18.500902
2009-07-27 11:14:15 51°9.951 2°39.025 18.8116 4.627277 34.494756 18.500902
2009-07-27 11:15:15 51°9.923 2°38.945 18.814 4.627588 34.494741 18.431254
2009-07-27 11:16:15 51°9.896 2°38.864 18.8158 4.627692 34.493645 18.39643
2009-07-27 11:17:14 51°9.873 2°38.783 18.8152 4.627796 34.493203 18.361606
2009-07-27 11:18:15 51°9.85 2°38.698 18.8179 4.627796 34.492549 18.361606
2009-07-27 11:19:15 51°9.829 2°38.615 18.8224 4.627796 34.49124 18.326782
2009-07-27 11:20:15 51°9.809 2°38.531 18.8192 4.628003 34.491012 18.291958
2009-07-27 11:21:15 51°9.787 2°38.45 18.8198 4.627899 34.490144 18.291958
2009-07-27 11:22:15 51°9.766 2°38.367 18.8206 4.627692 34.489064 18.257134
2009-07-27 11:23:15 51°9.746 2°38.284 18.8159 4.627588 34.488851 18.222309
2009-07-27 11:24:15 51°9.726 2°38.201 18.8164 4.627276 34.487557 18.187485
2009-07-27 11:25:15 51°9.703 2°38.119 18.8151 4.627173 34.487998 18.187485
2009-07-27 11:26:15 51°9.679 2°38.037 18.8125 4.626965 34.486917 18.152661
2009-07-27 11:27:15 51°9.656 2°37.955 18.8139 4.626757 34.486491 18.117837
2009-07-27 11:28:15 51°9.633 2°37.872 18.8134 4.626757 34.485837 18.117837
2009-07-27 11:29:15 51°9.608 2°37.789 18.8153 4.626653 34.484969 18.083013
2009-07-27 11:30:15 51°9.584 2°37.706 18.8119 4.626653 34.484315 18.083013
2009-07-27 11:31:15 51°9.56 2°37.624 18.8125 4.62655 34.484102 18.083013
2009-07-27 11:32:15 51°9.535 2°37.54 18.8141 4.626653 34.484315 18.048189
2009-07-27 11:33:15 51°9.512 2°37.456 18.8158 4.626653 34.484315 18.048189
2009-07-27 11:34:15 51°9.488 2°37.371 18.8182 4.626653 34.483006 18.048189
2009-07-27 11:35:15 51°9.463 2°37.288 18.8198 4.626861 34.482124 18.048189
2009-07-27 11:36:15 51°9.439 2°37.203 18.8215 4.626861 34.482778 18.048189
2009-07-27 11:37:15 51°9.415 2°37.118 18.82 4.626965 34.482337 18.048189
2009-07-27 11:38:15 51°9.391 2°37.031 18.8222 4.627069 34.481896 18.048189
2009-07-27 11:39:15 51°9.367 2°36.944 18.8225 4.627172 34.48211 18.083013
2009-07-27 11:40:15 51°9.343 2°36.857 18.8247 4.627172 34.480801 18.048189
2009-07-27 11:41:15 51°9.319 2°36.771 18.8245 4.627276 34.481015 18.083013
2009-07-27 11:42:15 51°9.304 2°36.681 18.8281 4.627172 34.480147 18.083013
2009-07-27 11:43:15 51°9.309 2°36.594 18.8318 4.62738 34.47992 18.048189
2009-07-27 11:44:15 51°9.331 2°36.518 18.8333 4.627588 34.479039 18.048189
2009-07-27 11:45:15 51°9.37 2°36.481 18.8279 4.627795 34.480119 18.083013
2009-07-27 11:46:15 51°9.393 2°36.51 18.8221 4.627276 34.479707 18.117837
2009-07-27 11:47:15 51°9.397 2°36.531 18.8282 4.626965 34.480375 18.117837
2009-07-27 11:48:15 51°9.399 2°36.542 18.8199 4.626965 34.479721 18.117837
2009-07-27 11:49:15 51°9.402 2°36.543 18.812 4.626446 34.479963 18.048189
2009-07-27 11:50:15 51°9.41 2°36.555 18.8056 4.62603 34.481072 18.013365
2009-07-27 11:51:15 51°9.44 2°36.676 18.7983 4.625303 34.482197 17.978541
2009-07-27 11:52:15 51°9.496 2°36.901 18.7909 4.624888 34.483308 18.083013
2009-07-27 11:53:15 51°9.552 2°37.159 18.784 4.624369 34.484206 18.187485
2009-07-27 11:54:15 51°9.605 2°37.423 18.9225 4.539323 33.770705 20.625169
2009-07-27 11:55:15 51°9.659 2°37.688 18.8823 4.586878 34.048991 18.988439
2009-07-27 11:56:15 51°9.716 2°37.951 18.858 4.626133 34.413386 18.883966
2009-07-27 11:57:15 51°9.782 2°38.208 18.8387 4.618864 34.379472 19.092911
2009-07-27 11:58:15 51°9.847 2°38.467 18.8233 4.622499 34.422839 19.267031
2009-07-27 11:59:15 51°9.911 2°38.728 18.8078 4.615541 34.37781 19.162559
2009-07-27 12:00:15 51°9.975 2°38.989 18.7808 4.625096 34.471956 19.092911
2009-07-27 12:01:15 51°10.04 2°39.249 18.7919 4.623019 34.474887 19.058087
2009-07-27 12:02:15 51°10.104 2°39.51 18.7641 4.620942 34.471274 18.849142
2009-07-27 12:03:15 51°10.162 2°39.776 18.7473 4.616269 34.442676 18.74467
2009-07-27 12:04:15 51°10.222 2°40.04 18.7479 4.619593 34.477673 18.640198
2009-07-27 12:05:15 51°10.278 2°40.305 18.7464 4.615854 34.445749 18.640198
2009-07-27 12:06:15 51°10.336 2°40.571 18.7502 4.61845 34.470084 18.74467
2009-07-27 12:07:15 51°10.395 2°40.835 18.7506 4.608377 34.383226 18.849142
2009-07-27 12:08:15 51°10.453 2°41.1 18.7563 4.61305 34.420992 18.918791
2009-07-27 12:09:15 51°10.511 2°41.366 18.7653 4.620735 34.480019 19.023263
2009-07-27 12:10:15 51°10.569 2°41.633 18.7822 4.6225 34.48823 19.023263
2009-07-27 12:11:15 51°10.627 2°41.9 18.7919 4.622915 34.479257 19.092911
2009-07-27 12:12:15 51°10.686 2°42.168 18.8044 4.62115 34.455993 19.058087
2009-07-27 12:13:15 51°10.745 2°42.436 18.8101 4.622188 34.458129 19.058087
2009-07-27 12:14:15 51°10.805 2°42.701 18.8143 4.621876 34.448333 19.058087
2009-07-27 12:15:15 51°10.863 2°42.968 18.8266 4.620526 34.430523 19.058087
2009-07-27 12:16:14 51°10.921 2°43.23 18.8366 4.625719 34.468005 19.092911
2009-07-27 12:17:15 51°10.98 2°43.501 18.848 4.628834 34.484214 19.127735
2009-07-27 12:18:14 51°11.04 2°43.76 18.8556 4.627484 34.463792 19.127735
2009-07-27 12:19:14 51°11.098 2°44.027 18.8645 4.630911 34.482595 19.092911
2009-07-27 12:20:14 51°11.157 2°44.293 19.0808 0.128347 0.730074 25.605009
2009-07-27 12:21:14 51°11.217 2°44.557 19.156 0.099324 0.558945 25.430889
2009-07-27 12:22:14 51°11.275 2°44.823 19.2176 0.088827 0.497671 25.36124
2009-07-27 12:23:14 51°11.334 2°45.089 19.2929 0.079256 0.442154 25.326416
2009-07-27 12:24:14 51°11.392 2°45.356 19.3593 0.075139 0.418385 25.36124
2009-07-27 12:25:15 51°11.448 2°45.628 19.4329 0.075551 0.420758 25.326416
2009-07-27 12:26:14 51°11.51 2°45.889 19.5005 0.071434 0.397048 25.326416
2009-07-27 12:27:14 51°11.577 2°46.152 19.5703 0.068758 0.381673 25.326416
2009-07-27 12:28:14 51°11.643 2°46.416 19.6407 0.066392 0.368098 25.291592
2009-07-27 12:29:15 51°11.714 2°46.682 19.7048 0.066392 0.368091 25.326416
2009-07-27 12:30:15 51°11.789 2°46.941 19.7694 0.065362 0.362191 25.36124
2009-07-27 12:31:15 51°11.865 2°47.2 19.8352 0.062687 0.346889 25.36124
2009-07-27 12:32:14 51°11.94 2°47.455 19.9014 0.061761 0.341582 25.36124
2009-07-27 12:33:14 51°12.015 2°47.714 19.966 0.060011 0.331612 25.396065
2009-07-27 12:34:15 51°12.093 2°47.978 20.0268 0.06279 0.347438 25.36124
2009-07-27 12:35:14 51°12.167 2°48.236 20.0947 0.061246 0.338638 25.36124
2009-07-27 12:36:14 51°12.244 2°48.498 20.1582 0.060217 0.332772 25.36124
2009-07-27 12:37:14 51°12.32 2°48.763 20.2153 0.059702 0.329832 25.36124
2009-07-27 12:38:14 51°12.396 2°49.027 20.2808 0.05857 0.323383 25.36124
2009-07-27 12:39:14 51°12.473 2°49.289 20.3437 0.056409 0.311098 25.326416
2009-07-27 12:40:14 51°12.552 2°49.55 20.3989 0.055689 0.307014 25.326416
2009-07-27 12:41:14 51°12.638 2°49.806 20.46 0.058673 0.323968 25.326416
2009-07-27 12:42:14 51°12.724 2°50.061 20.5265 0.05857 0.323378 25.291592
2009-07-27 12:43:14 51°12.806 2°50.319 20.5775 0.055998 0.308752 25.291592
2009-07-27 12:44:14 51°12.893 2°50.571 20.6371 0.055483 0.305842 25.291592
2009-07-27 12:45:14 51°12.984 2°50.82 20.6953 0.056821 0.313416 25.256768
2009-07-27 12:46:14 51°13.072 2°51.07 20.7614 0.058879 0.325103 25.221944
2009-07-27 12:47:15 51°13.156 2°51.329 20.8155 0.0561 0.309314 25.221944
2009-07-27 12:48:15 51°13.237 2°51.584 20.8575 0.053425 0.294176 25.221944
2009-07-27 12:49:14 51°13.319 2°51.834 20.9234 0.054454 0.299987 25.18712
2009-07-27 12:50:14 51°13.409 2°52.083 20.9801 0.054145 0.298229 25.18712
2009-07-27 12:51:14 51°13.5 2°52.332 21.0296 0.053013 0.291834 25.18712
2009-07-27 12:52:14 51°13.593 2°52.58 21.0896 0.055071 0.303477 25.152296
2009-07-27 12:53:14 51°13.691 2°52.82 21.1282 0.052807 0.29066 25.152296
2009-07-27 12:54:14 51°13.791 2°53.059 21.1802 0.054145 0.298224 25.152296
2009-07-27 12:55:14 51°13.893 2°53.298 21.2323 0.052396 0.28834 25.152296
2009-07-27 12:56:14 51°13.992 2°53.541 21.2899 0.050955 0.280219 25.117472
2009-07-27 12:57:14 51°14.085 2°53.789 21.3264 0.049514 0.272085 25.117472
2009-07-27 12:58:14 51°14.167 2°54.05 21.3719 0.056409 0.311098 25.117472
2009-07-27 12:59:14 51°14.241 2°54.315 21.4139 0.048897 0.26859 25.152296
2009-07-27 13:00:14 51°14.32 2°54.578 21.436 0.049 0.269193 25.117472
2009-07-27 13:01:14 51°14.358 2°54.861 21.4915 0.057953 0.319893 25.082648
2009-07-27 13:02:15 51°14.314 2°55.15 21.4936 0.057541 0.317532 25.047824
2009-07-27 13:03:15 51°14.197 2°55.346 21.5279 0.055689 0.307003 25.082648
2009-07-27 13:04:15 51°14.066 2°55.453 21.5672 0.057644 0.318128 25.047824
2009-07-27 13:05:15 51°13.938 2°55.544 21.6078 0.058159 0.321039 25.047824
2009-07-27 13:06:15 51°13.834 2°55.621 21.6383 0.059496 0.328661 25.047824
2009-07-27 13:07:14 51°13.754 2°55.718 21.666 0.058776 0.324571 25.047824
2009-07-27 13:08:14 51°13.7 2°55.824 21.7052 0.06032 0.333327 25.047824
2009-07-27 13:09:14 51°13.67 2°55.919 21.7436 0.058364 0.322191 25.047824
2009-07-27 13:10:14 51°13.662 2°55.954 21.7888 0.058056 0.32042 25.013